sensor_id;sensor_type;location;lat;lon;timestamp;P1;durP1;ratioP1;P2;durP2;ratioP2
21326;SDS011;10822;51.532;6.770;2022-07-18T00:01:44;4.10;;;1.80;;
21326;SDS011;10822;51.532;6.770;2022-07-18T00:04:10;5.65;;;1.80;;
21326;SDS011;10822;51.532;6.770;2022-07-18T00:06:36;3.90;;;1.63;;
21326;SDS011;10822;51.532;6.770;2022-07-18T00:09:03;5.35;;;2.00;;
21326;SDS011;10822;51.532;6.770;2022-07-18T00:11:29;5.32;;;1.83;;
21326;SDS011;10822;51.532;6.770;2022-07-18T00:13:55;3.47;;;1.67;;
21326;SDS011;10822;51.532;6.770;2022-07-18T00:16:22;4.88;;;1.63;;
21326;SDS011;10822;51.532;6.770;2022-07-18T00:18:48;3.75;;;1.55;;
21326;SDS011;10822;51.532;6.770;2022-07-18T00:21:14;3.95;;;1.70;;
21326;SDS011;10822;51.532;6.770;2022-07-18T00:23:40;3.33;;;1.65;;
21326;SDS011;10822;51.532;6.770;2022-07-18T00:26:07;4.10;;;1.77;;
21326;SDS011;10822;51.532;6.770;2022-07-18T00:28:33;4.93;;;2.00;;
21326;SDS011;10822;51.532;6.770;2022-07-18T00:30:59;5.43;;;2.03;;
21326;SDS011;10822;51.532;6.770;2022-07-18T00:33:25;4.82;;;1.92;;
21326;SDS011;10822;51.532;6.770;2022-07-18T00:35:51;6.47;;;1.80;;
21326;SDS011;10822;51.532;6.770;2022-07-18T00:38:17;4.25;;;2.00;;
21326;SDS011;10822;51.532;6.770;2022-07-18T00:40:43;4.07;;;1.77;;
21326;SDS011;10822;51.532;6.770;2022-07-18T00:43:12;4.00;;;1.83;;
21326;SDS011;10822;51.532;6.770;2022-07-18T00:45:38;3.53;;;1.95;;
21326;SDS011;10822;51.532;6.770;2022-07-18T00:48:05;5.78;;;1.80;;
21326;SDS011;10822;51.532;6.770;2022-07-18T00:50:31;4.63;;;2.05;;
21326;SDS011;10822;51.532;6.770;2022-07-18T00:52:57;4.38;;;1.90;;
21326;SDS011;10822;51.532;6.770;2022-07-18T00:55:23;5.28;;;2.05;;
21326;SDS011;10822;51.532;6.770;2022-07-18T00:57:49;3.92;;;1.83;;
21326;SDS011;10822;51.532;6.770;2022-07-18T01:00:15;3.17;;;1.73;;
21326;SDS011;10822;51.532;6.770;2022-07-18T01:03:00;4.00;;;2.10;;
21326;SDS011;10822;51.532;6.770;2022-07-18T01:05:26;3.60;;;1.77;;
21326;SDS011;10822;51.532;6.770;2022-07-18T01:07:52;4.13;;;2.05;;
21326;SDS011;10822;51.532;6.770;2022-07-18T01:10:18;4.80;;;2.13;;
21326;SDS011;10822;51.532;6.770;2022-07-18T01:12:45;6.18;;;1.98;;
21326;SDS011;10822;51.532;6.770;2022-07-18T01:15:11;6.82;;;2.70;;
21326;SDS011;10822;51.532;6.770;2022-07-18T01:17:37;4.90;;;2.15;;
21326;SDS011;10822;51.532;6.770;2022-07-18T01:20:04;4.78;;;2.00;;
21326;SDS011;10822;51.532;6.770;2022-07-18T01:22:30;7.45;;;2.65;;
21326;SDS011;10822;51.532;6.770;2022-07-18T01:24:56;7.25;;;2.08;;
21326;SDS011;10822;51.532;6.770;2022-07-18T01:27:22;5.15;;;2.42;;
21326;SDS011;10822;51.532;6.770;2022-07-18T01:29:49;5.10;;;2.25;;
21326;SDS011;10822;51.532;6.770;2022-07-18T01:32:16;4.03;;;1.98;;
21326;SDS011;10822;51.532;6.770;2022-07-18T01:34:42;4.15;;;1.95;;
21326;SDS011;10822;51.532;6.770;2022-07-18T01:37:08;4.95;;;2.08;;
21326;SDS011;10822;51.532;6.770;2022-07-18T01:39:35;3.60;;;1.80;;
21326;SDS011;10822;51.532;6.770;2022-07-18T01:42:05;6.53;;;2.17;;
21326;SDS011;10822;51.532;6.770;2022-07-18T01:44:32;5.20;;;2.10;;
21326;SDS011;10822;51.532;6.770;2022-07-18T01:46:59;6.55;;;2.08;;
21326;SDS011;10822;51.532;6.770;2022-07-18T01:49:25;6.60;;;1.90;;
21326;SDS011;10822;51.532;6.770;2022-07-18T01:51:52;9.25;;;2.50;;
21326;SDS011;10822;51.532;6.770;2022-07-18T01:54:22;5.10;;;2.25;;
21326;SDS011;10822;51.532;6.770;2022-07-18T01:56:49;6.97;;;2.25;;
21326;SDS011;10822;51.532;6.770;2022-07-18T01:59:15;5.95;;;2.20;;
21326;SDS011;10822;51.532;6.770;2022-07-18T02:01:41;4.97;;;2.08;;
21326;SDS011;10822;51.532;6.770;2022-07-18T02:04:07;7.60;;;2.17;;
21326;SDS011;10822;51.532;6.770;2022-07-18T02:06:33;5.72;;;2.30;;
21326;SDS011;10822;51.532;6.770;2022-07-18T02:08:59;3.80;;;2.00;;
21326;SDS011;10822;51.532;6.770;2022-07-18T02:11:25;6.15;;;2.38;;
21326;SDS011;10822;51.532;6.770;2022-07-18T02:13:51;4.63;;;2.28;;
21326;SDS011;10822;51.532;6.770;2022-07-18T02:16:17;8.55;;;2.50;;
21326;SDS011;10822;51.532;6.770;2022-07-18T02:18:43;4.75;;;2.30;;
21326;SDS011;10822;51.532;6.770;2022-07-18T02:21:09;4.78;;;2.28;;
21326;SDS011;10822;51.532;6.770;2022-07-18T02:23:35;5.85;;;2.35;;
21326;SDS011;10822;51.532;6.770;2022-07-18T02:26:01;5.38;;;2.30;;
21326;SDS011;10822;51.532;6.770;2022-07-18T02:28:27;5.82;;;2.38;;
21326;SDS011;10822;51.532;6.770;2022-07-18T02:30:53;4.25;;;2.10;;
21326;SDS011;10822;51.532;6.770;2022-07-18T02:33:19;5.78;;;2.03;;
21326;SDS011;10822;51.532;6.770;2022-07-18T02:35:45;4.95;;;2.00;;
21326;SDS011;10822;51.532;6.770;2022-07-18T02:38:11;5.68;;;2.40;;
21326;SDS011;10822;51.532;6.770;2022-07-18T02:40:37;5.57;;;2.00;;
21326;SDS011;10822;51.532;6.770;2022-07-18T02:43:03;6.93;;;2.40;;
21326;SDS011;10822;51.532;6.770;2022-07-18T02:45:29;5.68;;;1.90;;
21326;SDS011;10822;51.532;6.770;2022-07-18T02:47:55;4.03;;;2.13;;
21326;SDS011;10822;51.532;6.770;2022-07-18T02:50:21;4.95;;;2.03;;
21326;SDS011;10822;51.532;6.770;2022-07-18T02:52:47;4.28;;;2.00;;
21326;SDS011;10822;51.532;6.770;2022-07-18T02:55:15;4.28;;;2.30;;
21326;SDS011;10822;51.532;6.770;2022-07-18T02:57:41;6.55;;;2.25;;
21326;SDS011;10822;51.532;6.770;2022-07-18T03:00:08;5.32;;;2.50;;
21326;SDS011;10822;51.532;6.770;2022-07-18T03:02:35;4.38;;;1.92;;
21326;SDS011;10822;51.532;6.770;2022-07-18T03:05:01;5.25;;;2.10;;
21326;SDS011;10822;51.532;6.770;2022-07-18T03:07:27;5.53;;;2.38;;
21326;SDS011;10822;51.532;6.770;2022-07-18T03:09:53;4.43;;;2.20;;
21326;SDS011;10822;51.532;6.770;2022-07-18T03:12:19;6.75;;;2.50;;
21326;SDS011;10822;51.532;6.770;2022-07-18T03:14:45;4.10;;;2.30;;
21326;SDS011;10822;51.532;6.770;2022-07-18T03:17:11;5.15;;;2.40;;
21326;SDS011;10822;51.532;6.770;2022-07-18T03:19:37;5.57;;;2.22;;
21326;SDS011;10822;51.532;6.770;2022-07-18T03:22:03;6.72;;;2.60;;
21326;SDS011;10822;51.532;6.770;2022-07-18T03:24:29;6.07;;;2.53;;
21326;SDS011;10822;51.532;6.770;2022-07-18T03:26:56;3.75;;;2.33;;
21326;SDS011;10822;51.532;6.770;2022-07-18T03:29:22;5.82;;;2.60;;
21326;SDS011;10822;51.532;6.770;2022-07-18T03:31:48;7.65;;;2.78;;
21326;SDS011;10822;51.532;6.770;2022-07-18T03:34:14;5.68;;;2.67;;
21326;SDS011;10822;51.532;6.770;2022-07-18T03:36:41;6.80;;;2.60;;
21326;SDS011;10822;51.532;6.770;2022-07-18T03:39:07;7.45;;;2.47;;
21326;SDS011;10822;51.532;6.770;2022-07-18T03:41:34;3.90;;;2.22;;
21326;SDS011;10822;51.532;6.770;2022-07-18T03:44:00;8.90;;;2.58;;
21326;SDS011;10822;51.532;6.770;2022-07-18T03:46:26;5.78;;;2.53;;
21326;SDS011;10822;51.532;6.770;2022-07-18T03:48:52;6.65;;;2.58;;
21326;SDS011;10822;51.532;6.770;2022-07-18T03:51:18;7.28;;;2.30;;
21326;SDS011;10822;51.532;6.770;2022-07-18T03:53:44;5.13;;;2.20;;
21326;SDS011;10822;51.532;6.770;2022-07-18T03:56:10;7.18;;;2.60;;
21326;SDS011;10822;51.532;6.770;2022-07-18T03:58:36;5.82;;;2.88;;
21326;SDS011;10822;51.532;6.770;2022-07-18T04:01:03;4.88;;;2.53;;
21326;SDS011;10822;51.532;6.770;2022-07-18T04:03:29;4.65;;;2.80;;
21326;SDS011;10822;51.532;6.770;2022-07-18T04:05:55;6.45;;;2.55;;
21326;SDS011;10822;51.532;6.770;2022-07-18T04:08:21;9.50;;;3.13;;
21326;SDS011;10822;51.532;6.770;2022-07-18T04:10:47;10.05;;;3.42;;
21326;SDS011;10822;51.532;6.770;2022-07-18T04:13:13;5.50;;;2.90;;
21326;SDS011;10822;51.532;6.770;2022-07-18T04:15:40;6.68;;;2.70;;
21326;SDS011;10822;51.532;6.770;2022-07-18T04:18:07;6.03;;;2.95;;
21326;SDS011;10822;51.532;6.770;2022-07-18T04:20:33;6.45;;;3.05;;
21326;SDS011;10822;51.532;6.770;2022-07-18T04:23:00;9.18;;;3.30;;
21326;SDS011;10822;51.532;6.770;2022-07-18T04:25:28;5.43;;;2.83;;
21326;SDS011;10822;51.532;6.770;2022-07-18T04:27:54;7.40;;;2.63;;
21326;SDS011;10822;51.532;6.770;2022-07-18T04:30:21;5.30;;;2.60;;
21326;SDS011;10822;51.532;6.770;2022-07-18T04:32:48;7.25;;;3.10;;
21326;SDS011;10822;51.532;6.770;2022-07-18T04:35:14;8.45;;;3.60;;
21326;SDS011;10822;51.532;6.770;2022-07-18T04:37:41;7.50;;;3.58;;
21326;SDS011;10822;51.532;6.770;2022-07-18T04:40:08;5.43;;;3.17;;
21326;SDS011;10822;51.532;6.770;2022-07-18T04:42:34;8.48;;;3.25;;
21326;SDS011;10822;51.532;6.770;2022-07-18T04:45:00;6.03;;;2.92;;
21326;SDS011;10822;51.532;6.770;2022-07-18T04:47:26;8.93;;;3.60;;
21326;SDS011;10822;51.532;6.770;2022-07-18T04:49:52;9.43;;;5.50;;
21326;SDS011;10822;51.532;6.770;2022-07-18T04:52:19;9.63;;;3.70;;
21326;SDS011;10822;51.532;6.770;2022-07-18T04:54:45;7.57;;;3.25;;
21326;SDS011;10822;51.532;6.770;2022-07-18T04:57:11;8.07;;;3.28;;
21326;SDS011;10822;51.532;6.770;2022-07-18T04:59:39;6.63;;;3.08;;
21326;SDS011;10822;51.532;6.770;2022-07-18T05:02:05;6.30;;;2.80;;
21326;SDS011;10822;51.532;6.770;2022-07-18T05:04:31;9.05;;;3.10;;
21326;SDS011;10822;51.532;6.770;2022-07-18T05:06:57;5.78;;;2.75;;
21326;SDS011;10822;51.532;6.770;2022-07-18T05:09:23;5.45;;;2.78;;
21326;SDS011;10822;51.532;6.770;2022-07-18T05:11:49;8.70;;;3.08;;
21326;SDS011;10822;51.532;6.770;2022-07-18T05:14:15;7.03;;;3.30;;
21326;SDS011;10822;51.532;6.770;2022-07-18T05:16:41;10.52;;;3.10;;
21326;SDS011;10822;51.532;6.770;2022-07-18T05:19:07;10.85;;;3.17;;
21326;SDS011;10822;51.532;6.770;2022-07-18T05:21:33;9.25;;;2.72;;
21326;SDS011;10822;51.532;6.770;2022-07-18T05:23:59;8.73;;;3.58;;
21326;SDS011;10822;51.532;6.770;2022-07-18T05:26:25;9.70;;;3.42;;
21326;SDS011;10822;51.532;6.770;2022-07-18T05:28:51;9.15;;;3.42;;
21326;SDS011;10822;51.532;6.770;2022-07-18T05:31:17;11.82;;;3.55;;
21326;SDS011;10822;51.532;6.770;2022-07-18T05:33:43;10.23;;;3.33;;
21326;SDS011;10822;51.532;6.770;2022-07-18T05:36:09;9.40;;;3.42;;
21326;SDS011;10822;51.532;6.770;2022-07-18T05:38:35;11.20;;;3.58;;
21326;SDS011;10822;51.532;6.770;2022-07-18T05:41:01;10.02;;;3.58;;
21326;SDS011;10822;51.532;6.770;2022-07-18T05:43:28;11.25;;;5.78;;
21326;SDS011;10822;51.532;6.770;2022-07-18T05:45:53;11.27;;;5.07;;
21326;SDS011;10822;51.532;6.770;2022-07-18T05:48:19;10.88;;;4.93;;
21326;SDS011;10822;51.532;6.770;2022-07-18T05:50:45;9.88;;;4.70;;
21326;SDS011;10822;51.532;6.770;2022-07-18T05:53:11;9.48;;;4.03;;
21326;SDS011;10822;51.532;6.770;2022-07-18T05:55:37;10.43;;;3.55;;
21326;SDS011;10822;51.532;6.770;2022-07-18T05:58:03;9.43;;;3.47;;
21326;SDS011;10822;51.532;6.770;2022-07-18T06:00:30;11.05;;;2.90;;
21326;SDS011;10822;51.532;6.770;2022-07-18T06:02:56;10.38;;;2.88;;
21326;SDS011;10822;51.532;6.770;2022-07-18T06:05:22;10.27;;;3.00;;
21326;SDS011;10822;51.532;6.770;2022-07-18T06:07:48;6.10;;;2.90;;
21326;SDS011;10822;51.532;6.770;2022-07-18T06:10:14;7.57;;;2.67;;
21326;SDS011;10822;51.532;6.770;2022-07-18T06:12:40;8.80;;;2.78;;
21326;SDS011;10822;51.532;6.770;2022-07-18T06:15:06;10.82;;;2.92;;
21326;SDS011;10822;51.532;6.770;2022-07-18T06:17:32;8.70;;;3.15;;
21326;SDS011;10822;51.532;6.770;2022-07-18T06:19:58;13.23;;;3.15;;
21326;SDS011;10822;51.532;6.770;2022-07-18T06:22:24;11.07;;;3.40;;
21326;SDS011;10822;51.532;6.770;2022-07-18T06:24:50;9.73;;;3.45;;
21326;SDS011;10822;51.532;6.770;2022-07-18T06:27:17;9.77;;;2.92;;
21326;SDS011;10822;51.532;6.770;2022-07-18T06:29:43;12.32;;;3.30;;
21326;SDS011;10822;51.532;6.770;2022-07-18T06:32:09;11.18;;;2.97;;
21326;SDS011;10822;51.532;6.770;2022-07-18T06:34:35;9.48;;;3.00;;
21326;SDS011;10822;51.532;6.770;2022-07-18T06:37:01;7.47;;;2.83;;
21326;SDS011;10822;51.532;6.770;2022-07-18T06:39:27;9.82;;;2.40;;
21326;SDS011;10822;51.532;6.770;2022-07-18T06:41:53;7.20;;;2.13;;
21326;SDS011;10822;51.532;6.770;2022-07-18T06:44:19;7.65;;;2.20;;
21326;SDS011;10822;51.532;6.770;2022-07-18T06:46:45;10.18;;;2.20;;
21326;SDS011;10822;51.532;6.770;2022-07-18T06:49:11;8.85;;;2.40;;
21326;SDS011;10822;51.532;6.770;2022-07-18T06:51:37;6.55;;;2.10;;
21326;SDS011;10822;51.532;6.770;2022-07-18T06:54:03;10.07;;;2.00;;
21326;SDS011;10822;51.532;6.770;2022-07-18T06:56:29;6.68;;;1.90;;
21326;SDS011;10822;51.532;6.770;2022-07-18T06:58:55;6.53;;;1.83;;
21326;SDS011;10822;51.532;6.770;2022-07-18T07:01:21;7.53;;;1.90;;
21326;SDS011;10822;51.532;6.770;2022-07-18T07:03:47;5.68;;;1.90;;
21326;SDS011;10822;51.532;6.770;2022-07-18T07:06:13;6.13;;;1.75;;
21326;SDS011;10822;51.532;6.770;2022-07-18T07:08:40;7.07;;;1.85;;
21326;SDS011;10822;51.532;6.770;2022-07-18T07:11:06;4.95;;;1.70;;
21326;SDS011;10822;51.532;6.770;2022-07-18T07:13:32;7.43;;;1.80;;
21326;SDS011;10822;51.532;6.770;2022-07-18T07:15:58;8.43;;;1.70;;
21326;SDS011;10822;51.532;6.770;2022-07-18T07:18:24;6.13;;;1.60;;
21326;SDS011;10822;51.532;6.770;2022-07-18T07:20:50;3.40;;;1.33;;
21326;SDS011;10822;51.532;6.770;2022-07-18T07:23:16;4.97;;;1.30;;
21326;SDS011;10822;51.532;6.770;2022-07-18T07:25:42;6.20;;;1.50;;
21326;SDS011;10822;51.532;6.770;2022-07-18T07:28:08;5.97;;;1.30;;
21326;SDS011;10822;51.532;6.770;2022-07-18T07:30:35;7.95;;;1.63;;
21326;SDS011;10822;51.532;6.770;2022-07-18T07:33:01;5.75;;;1.40;;
21326;SDS011;10822;51.532;6.770;2022-07-18T07:35:28;5.60;;;2.00;;
21326;SDS011;10822;51.532;6.770;2022-07-18T07:37:55;4.53;;;1.52;;
21326;SDS011;10822;51.532;6.770;2022-07-18T07:40:22;6.43;;;1.50;;
21326;SDS011;10822;51.532;6.770;2022-07-18T07:42:49;8.65;;;1.55;;
21326;SDS011;10822;51.532;6.770;2022-07-18T07:45:15;4.53;;;1.58;;
21326;SDS011;10822;51.532;6.770;2022-07-18T07:47:42;8.00;;;1.65;;
21326;SDS011;10822;51.532;6.770;2022-07-18T07:50:09;8.93;;;1.50;;
21326;SDS011;10822;51.532;6.770;2022-07-18T07:52:35;5.47;;;1.60;;
21326;SDS011;10822;51.532;6.770;2022-07-18T07:55:02;5.03;;;1.55;;
21326;SDS011;10822;51.532;6.770;2022-07-18T07:57:28;6.00;;;1.50;;
21326;SDS011;10822;51.532;6.770;2022-07-18T08:02:50;6.43;;;1.40;;
21326;SDS011;10822;51.532;6.770;2022-07-18T08:05:16;6.75;;;1.70;;
21326;SDS011;10822;51.532;6.770;2022-07-18T08:07:42;6.50;;;1.58;;
21326;SDS011;10822;51.532;6.770;2022-07-18T08:10:08;8.60;;;1.77;;
21326;SDS011;10822;51.532;6.770;2022-07-18T08:12:34;7.20;;;2.00;;
21326;SDS011;10822;51.532;6.770;2022-07-18T08:15:00;6.47;;;1.55;;
21326;SDS011;10822;51.532;6.770;2022-07-18T08:17:26;6.10;;;1.63;;
21326;SDS011;10822;51.532;6.770;2022-07-18T08:19:52;13.63;;;2.20;;
21326;SDS011;10822;51.532;6.770;2022-07-18T08:22:18;8.10;;;1.70;;
21326;SDS011;10822;51.532;6.770;2022-07-18T08:24:44;5.22;;;1.70;;
21326;SDS011;10822;51.532;6.770;2022-07-18T08:27:10;5.15;;;2.10;;
21326;SDS011;10822;51.532;6.770;2022-07-18T08:29:36;6.45;;;1.80;;
21326;SDS011;10822;51.532;6.770;2022-07-18T08:32:02;7.47;;;1.60;;
21326;SDS011;10822;51.532;6.770;2022-07-18T08:34:28;7.35;;;1.90;;
21326;SDS011;10822;51.532;6.770;2022-07-18T08:36:54;7.82;;;1.90;;
21326;SDS011;10822;51.532;6.770;2022-07-18T08:39:20;10.23;;;2.25;;
21326;SDS011;10822;51.532;6.770;2022-07-18T08:41:46;4.70;;;1.55;;
21326;SDS011;10822;51.532;6.770;2022-07-18T08:44:16;6.80;;;1.67;;
21326;SDS011;10822;51.532;6.770;2022-07-18T08:46:51;6.68;;;1.83;;
21326;SDS011;10822;51.532;6.770;2022-07-18T08:49:19;5.65;;;1.90;;
21326;SDS011;10822;51.532;6.770;2022-07-18T08:51:46;7.78;;;1.70;;
21326;SDS011;10822;51.532;6.770;2022-07-18T08:54:13;6.57;;;1.88;;
21326;SDS011;10822;51.532;6.770;2022-07-18T08:56:39;6.57;;;2.20;;
21326;SDS011;10822;51.532;6.770;2022-07-18T08:59:05;8.05;;;2.15;;
21326;SDS011;10822;51.532;6.770;2022-07-18T09:01:31;5.90;;;1.92;;
21326;SDS011;10822;51.532;6.770;2022-07-18T09:03:57;8.00;;;2.40;;
21326;SDS011;10822;51.532;6.770;2022-07-18T09:06:46;8.70;;;2.55;;
21326;SDS011;10822;51.532;6.770;2022-07-18T09:09:13;10.90;;;2.67;;
21326;SDS011;10822;51.532;6.770;2022-07-18T09:14:35;10.55;;;3.17;;
21326;SDS011;10822;51.532;6.770;2022-07-18T09:19:32;8.70;;;3.20;;
21326;SDS011;10822;51.532;6.770;2022-07-18T09:22:11;14.82;;;3.20;;
21326;SDS011;10822;51.532;6.770;2022-07-18T09:24:57;13.38;;;3.40;;
21326;SDS011;10822;51.532;6.770;2022-07-18T09:27:31;9.10;;;3.03;;
21326;SDS011;10822;51.532;6.770;2022-07-18T09:30:08;9.43;;;2.92;;
21326;SDS011;10822;51.532;6.770;2022-07-18T09:32:35;13.40;;;2.97;;
21326;SDS011;10822;51.532;6.770;2022-07-18T09:35:05;10.85;;;2.85;;
21326;SDS011;10822;51.532;6.770;2022-07-18T09:37:31;10.23;;;2.75;;
21326;SDS011;10822;51.532;6.770;2022-07-18T09:40:13;9.10;;;3.10;;
21326;SDS011;10822;51.532;6.770;2022-07-18T09:42:39;11.48;;;3.35;;
21326;SDS011;10822;51.532;6.770;2022-07-18T09:45:05;10.38;;;3.25;;
21326;SDS011;10822;51.532;6.770;2022-07-18T09:47:32;9.73;;;3.40;;
21326;SDS011;10822;51.532;6.770;2022-07-18T09:49:58;9.60;;;3.20;;
21326;SDS011;10822;51.532;6.770;2022-07-18T09:52:24;12.05;;;4.70;;
21326;SDS011;10822;51.532;6.770;2022-07-18T09:54:50;14.35;;;5.35;;
21326;SDS011;10822;51.532;6.770;2022-07-18T09:57:23;16.85;;;6.18;;
21326;SDS011;10822;51.532;6.770;2022-07-18T09:59:49;12.80;;;5.60;;
21326;SDS011;10822;51.532;6.770;2022-07-18T10:02:16;12.75;;;4.32;;
21326;SDS011;10822;51.532;6.770;2022-07-18T10:04:42;9.80;;;3.53;;
21326;SDS011;10822;51.532;6.770;2022-07-18T10:07:09;6.90;;;2.90;;
21326;SDS011;10822;51.532;6.770;2022-07-18T10:09:37;8.95;;;2.60;;
21326;SDS011;10822;51.532;6.770;2022-07-18T10:12:03;8.82;;;3.17;;
21326;SDS011;10822;51.532;6.770;2022-07-18T10:14:29;5.28;;;1.85;;
21326;SDS011;10822;51.532;6.770;2022-07-18T10:16:56;2.85;;;1.70;;
21326;SDS011;10822;51.532;6.770;2022-07-18T10:19:22;7.07;;;1.70;;
21326;SDS011;10822;51.532;6.770;2022-07-18T10:21:48;7.70;;;2.22;;
21326;SDS011;10822;51.532;6.770;2022-07-18T10:24:16;6.13;;;1.88;;
21326;SDS011;10822;51.532;6.770;2022-07-18T10:26:42;7.88;;;2.00;;
21326;SDS011;10822;51.532;6.770;2022-07-18T10:29:09;3.95;;;2.08;;
21326;SDS011;10822;51.532;6.770;2022-07-18T10:31:36;5.85;;;2.30;;
21326;SDS011;10822;51.532;6.770;2022-07-18T10:36:32;6.75;;;2.08;;
21326;SDS011;10822;51.532;6.770;2022-07-18T10:39:11;5.93;;;2.10;;
21326;SDS011;10822;51.532;6.770;2022-07-18T10:47:12;5.90;;;1.55;;
21326;SDS011;10822;51.532;6.770;2022-07-18T11:00:16;4.97;;;1.75;;
21326;SDS011;10822;51.532;6.770;2022-07-18T11:02:43;7.35;;;2.38;;
21326;SDS011;10822;51.532;6.770;2022-07-18T11:19:17;7.07;;;1.98;;
21326;SDS011;10822;51.532;6.770;2022-07-18T11:23:44;7.38;;;1.98;;
21326;SDS011;10822;51.532;6.770;2022-07-18T11:26:14;11.57;;;2.40;;
21326;SDS011;10822;51.532;6.770;2022-07-18T11:28:41;6.18;;;1.95;;
21326;SDS011;10822;51.532;6.770;2022-07-18T11:31:08;6.78;;;1.77;;
21326;SDS011;10822;51.532;6.770;2022-07-18T11:33:36;5.88;;;2.10;;
21326;SDS011;10822;51.532;6.770;2022-07-18T11:36:06;3.83;;;1.48;;
21326;SDS011;10822;51.532;6.770;2022-07-18T11:38:32;4.13;;;1.70;;
21326;SDS011;10822;51.532;6.770;2022-07-18T11:40:58;3.28;;;1.40;;
21326;SDS011;10822;51.532;6.770;2022-07-18T11:43:25;3.15;;;1.48;;
21326;SDS011;10822;51.532;6.770;2022-07-18T11:45:59;7.13;;;1.60;;
21326;SDS011;10822;51.532;6.770;2022-07-18T11:48:25;4.30;;;1.98;;
21326;SDS011;10822;51.532;6.770;2022-07-18T11:50:51;4.03;;;1.63;;
21326;SDS011;10822;51.532;6.770;2022-07-18T11:53:17;4.20;;;1.50;;
21326;SDS011;10822;51.532;6.770;2022-07-18T11:55:43;3.55;;;1.40;;
21326;SDS011;10822;51.532;6.770;2022-07-18T11:58:10;3.05;;;1.45;;
21326;SDS011;10822;51.532;6.770;2022-07-18T12:00:37;2.13;;;1.40;;
21326;SDS011;10822;51.532;6.770;2022-07-18T12:03:11;3.78;;;1.50;;
21326;SDS011;10822;51.532;6.770;2022-07-18T12:05:44;3.10;;;1.27;;
21326;SDS011;10822;51.532;6.770;2022-07-18T12:16:27;4.88;;;1.70;;
21326;SDS011;10822;51.532;6.770;2022-07-18T12:19:17;5.88;;;1.80;;
21326;SDS011;10822;51.532;6.770;2022-07-18T12:22:26;3.65;;;1.73;;
21326;SDS011;10822;51.532;6.770;2022-07-18T12:24:29;2.97;;;1.55;;
21326;SDS011;10822;51.532;6.770;2022-07-18T12:32:23;5.53;;;1.50;;
21326;SDS011;10822;51.532;6.770;2022-07-18T12:34:56;3.35;;;1.70;;
21326;SDS011;10822;51.532;6.770;2022-07-18T12:37:23;7.20;;;1.80;;
21326;SDS011;10822;51.532;6.770;2022-07-18T12:39:49;2.65;;;1.38;;
21326;SDS011;10822;51.532;6.770;2022-07-18T12:42:28;6.50;;;1.80;;
21326;SDS011;10822;51.532;6.770;2022-07-18T12:44:55;5.03;;;1.77;;
21326;SDS011;10822;51.532;6.770;2022-07-18T12:47:20;5.05;;;1.63;;
21326;SDS011;10822;51.532;6.770;2022-07-18T12:49:46;6.95;;;1.60;;
21326;SDS011;10822;51.532;6.770;2022-07-18T12:52:12;4.47;;;1.60;;
21326;SDS011;10822;51.532;6.770;2022-07-18T12:54:38;3.33;;;1.80;;
21326;SDS011;10822;51.532;6.770;2022-07-18T12:57:04;4.72;;;2.58;;
21326;SDS011;10822;51.532;6.770;2022-07-18T12:59:30;6.75;;;3.00;;
21326;SDS011;10822;51.532;6.770;2022-07-18T13:01:56;3.55;;;1.90;;
21326;SDS011;10822;51.532;6.770;2022-07-18T13:04:22;3.92;;;1.63;;
21326;SDS011;10822;51.532;6.770;2022-07-18T13:06:48;3.75;;;1.58;;
21326;SDS011;10822;51.532;6.770;2022-07-18T13:09:15;6.65;;;1.67;;
21326;SDS011;10822;51.532;6.770;2022-07-18T13:11:41;5.97;;;1.30;;
21326;SDS011;10822;51.532;6.770;2022-07-18T13:14:11;6.80;;;1.70;;
21326;SDS011;10822;51.532;6.770;2022-07-18T13:16:37;3.83;;;1.73;;
21326;SDS011;10822;51.532;6.770;2022-07-18T13:19:03;4.22;;;1.60;;
21326;SDS011;10822;51.532;6.770;2022-07-18T13:21:29;8.18;;;1.60;;
21326;SDS011;10822;51.532;6.770;2022-07-18T13:23:55;2.55;;;1.40;;
21326;SDS011;10822;51.532;6.770;2022-07-18T13:26:21;4.93;;;1.85;;
21326;SDS011;10822;51.532;6.770;2022-07-18T13:28:47;4.38;;;1.67;;
21326;SDS011;10822;51.532;6.770;2022-07-18T13:31:13;5.47;;;1.90;;
21326;SDS011;10822;51.532;6.770;2022-07-18T13:33:39;4.32;;;1.65;;
21326;SDS011;10822;51.532;6.770;2022-07-18T13:36:05;5.35;;;1.70;;
21326;SDS011;10822;51.532;6.770;2022-07-18T13:38:31;5.70;;;2.58;;
21326;SDS011;10822;51.532;6.770;2022-07-18T13:40:57;7.18;;;1.80;;
21326;SDS011;10822;51.532;6.770;2022-07-18T13:43:23;6.93;;;1.55;;
21326;SDS011;10822;51.532;6.770;2022-07-18T13:45:49;4.03;;;1.50;;
21326;SDS011;10822;51.532;6.770;2022-07-18T13:48:15;5.57;;;1.92;;
21326;SDS011;10822;51.532;6.770;2022-07-18T13:50:41;4.60;;;1.80;;
21326;SDS011;10822;51.532;6.770;2022-07-18T13:53:07;4.53;;;1.80;;
21326;SDS011;10822;51.532;6.770;2022-07-18T13:55:33;5.05;;;1.70;;
21326;SDS011;10822;51.532;6.770;2022-07-18T13:57:59;5.20;;;1.63;;
21326;SDS011;10822;51.532;6.770;2022-07-18T14:00:25;4.72;;;1.60;;
21326;SDS011;10822;51.532;6.770;2022-07-18T14:02:51;3.15;;;1.55;;
21326;SDS011;10822;51.532;6.770;2022-07-18T14:05:17;6.05;;;1.60;;
21326;SDS011;10822;51.532;6.770;2022-07-18T14:07:43;4.30;;;1.63;;
21326;SDS011;10822;51.532;6.770;2022-07-18T14:10:10;7.13;;;1.88;;
21326;SDS011;10822;51.532;6.770;2022-07-18T14:12:36;4.43;;;1.70;;
21326;SDS011;10822;51.532;6.770;2022-07-18T14:15:02;3.95;;;1.80;;
21326;SDS011;10822;51.532;6.770;2022-07-18T14:17:28;4.55;;;1.60;;
21326;SDS011;10822;51.532;6.770;2022-07-18T14:19:55;4.97;;;1.70;;
21326;SDS011;10822;51.532;6.770;2022-07-18T14:22:21;5.30;;;1.70;;
21326;SDS011;10822;51.532;6.770;2022-07-18T14:24:47;7.63;;;1.70;;
21326;SDS011;10822;51.532;6.770;2022-07-18T14:27:13;6.88;;;1.83;;
21326;SDS011;10822;51.532;6.770;2022-07-18T14:29:39;5.95;;;2.30;;
21326;SDS011;10822;51.532;6.770;2022-07-18T14:32:05;5.40;;;2.42;;
21326;SDS011;10822;51.532;6.770;2022-07-18T14:34:32;5.38;;;2.25;;
21326;SDS011;10822;51.532;6.770;2022-07-18T14:36:58;4.93;;;2.08;;
21326;SDS011;10822;51.532;6.770;2022-07-18T14:39:24;4.35;;;2.05;;
21326;SDS011;10822;51.532;6.770;2022-07-18T14:41:51;6.43;;;1.90;;
21326;SDS011;10822;51.532;6.770;2022-07-18T14:44:17;4.00;;;1.70;;
21326;SDS011;10822;51.532;6.770;2022-07-18T14:46:43;5.63;;;2.00;;
21326;SDS011;10822;51.532;6.770;2022-07-18T14:49:09;4.32;;;1.65;;
21326;SDS011;10822;51.532;6.770;2022-07-18T14:51:35;2.58;;;1.60;;
21326;SDS011;10822;51.532;6.770;2022-07-18T14:54:01;4.80;;;1.60;;
21326;SDS011;10822;51.532;6.770;2022-07-18T14:56:27;3.83;;;1.30;;
21326;SDS011;10822;51.532;6.770;2022-07-18T14:58:53;3.28;;;1.40;;
21326;SDS011;10822;51.532;6.770;2022-07-18T15:01:19;3.70;;;1.60;;
21326;SDS011;10822;51.532;6.770;2022-07-18T15:03:45;2.55;;;1.50;;
21326;SDS011;10822;51.532;6.770;2022-07-18T15:06:11;3.08;;;1.40;;
21326;SDS011;10822;51.532;6.770;2022-07-18T15:08:37;8.98;;;1.90;;
21326;SDS011;10822;51.532;6.770;2022-07-18T15:11:03;3.28;;;1.48;;
21326;SDS011;10822;51.532;6.770;2022-07-18T15:13:29;4.30;;;1.50;;
21326;SDS011;10822;51.532;6.770;2022-07-18T15:15:55;3.45;;;1.58;;
21326;SDS011;10822;51.532;6.770;2022-07-18T15:18:21;3.45;;;1.58;;
21326;SDS011;10822;51.532;6.770;2022-07-18T15:20:47;3.13;;;1.60;;
21326;SDS011;10822;51.532;6.770;2022-07-18T15:23:13;4.15;;;1.33;;
21326;SDS011;10822;51.532;6.770;2022-07-18T15:25:39;1.92;;;1.30;;
21326;SDS011;10822;51.532;6.770;2022-07-18T15:28:05;1.75;;;1.40;;
21326;SDS011;10822;51.532;6.770;2022-07-18T15:30:31;4.10;;;1.50;;
21326;SDS011;10822;51.532;6.770;2022-07-18T15:32:57;5.18;;;1.70;;
21326;SDS011;10822;51.532;6.770;2022-07-18T15:35:23;2.95;;;1.40;;
21326;SDS011;10822;51.532;6.770;2022-07-18T15:37:49;5.68;;;1.70;;
21326;SDS011;10822;51.532;6.770;2022-07-18T15:40:15;2.92;;;1.70;;